createdAt,value
2024-01-05T00:00:05.247Z,73.75
2024-01-05T00:02:35.090Z,73.45
2024-01-05T00:05:03.038Z,73.12
2024-01-05T00:07:31.547Z,72.90
2024-01-05T00:09:59.304Z,73.25
2024-01-05T00:12:27.347Z,73.07
2024-01-05T00:14:55.140Z,73.12
2024-01-05T00:17:22.839Z,73.46
2024-01-05T00:19:50.766Z,73.63
2024-01-05T00:22:18.491Z,73.69
2024-01-05T00:24:46.166Z,73.64
2024-01-05T00:27:15.366Z,73.67
2024-01-05T00:29:43.816Z,73.47
2024-01-05T00:32:17.806Z,73.34
2024-01-05T00:34:47.778Z,73.69
2024-01-05T00:37:15.620Z,74.41
2024-01-05T00:39:43.330Z,74.24
2024-01-05T00:42:11.449Z,74.38
2024-01-05T00:44:40.396Z,74.40
2024-01-05T00:47:08.527Z,74.16
2024-01-05T00:49:36.606Z,74.18
2024-01-05T00:52:04.725Z,74.37
2024-01-05T00:54:32.571Z,74.22
2024-01-05T00:57:00.603Z,74.37
2024-01-05T00:59:29.573Z,73.68
2024-01-05T01:01:58.157Z,72.96
2024-01-05T01:04:26.242Z,74.09
2024-01-05T01:06:54.074Z,73.57
2024-01-05T01:09:21.755Z,73.26
2024-01-05T01:11:52.511Z,72.13
2024-01-05T01:14:20.186Z,72.78
2024-01-05T01:16:47.803Z,72.60
2024-01-05T01:19:15.943Z,72.29
2024-01-05T01:21:43.701Z,71.74
2024-01-05T01:24:11.462Z,71.30
2024-01-05T01:26:40.203Z,70.95
2024-01-05T01:29:09.301Z,70.68
2024-01-05T01:31:37.405Z,70.46
2024-01-05T01:34:05.517Z,70.38
2024-01-05T01:36:33.406Z,70.72
2024-01-05T01:39:01.554Z,70.30
2024-01-05T01:41:29.545Z,69.94
2024-01-05T01:43:57.375Z,70.73
2024-01-05T01:46:25.093Z,70.66
2024-01-05T01:48:53.227Z,71.20
2024-01-05T01:51:21.420Z,70.69
2024-01-05T01:53:49.073Z,71.05
2024-01-05T01:56:17.112Z,71.32
2024-01-05T01:58:45.178Z,71.01
2024-01-05T02:01:13.009Z,71.18
2024-01-05T02:03:41.248Z,71.56
2024-01-05T02:06:08.979Z,72.18
2024-01-05T02:08:36.688Z,72.39
2024-01-05T02:11:04.710Z,73.63
2024-01-05T02:13:34.977Z,74.30
2024-01-05T02:16:02.651Z,74.74
2024-01-05T02:18:53.213Z,76.38
2024-01-05T02:21:22.352Z,76.70
2024-01-05T02:23:50.401Z,77.44
2024-01-05T02:26:18.172Z,78.30
2024-01-05T02:28:45.857Z,78.82
2024-01-05T02:31:17.400Z,79.58
2024-01-05T02:33:45.507Z,80.19
2024-01-05T02:36:13.387Z,82.58
2024-01-05T02:38:41.403Z,80.59
2024-01-05T02:41:11.049Z,80.96
2024-01-05T02:43:38.751Z,81.19
2024-01-05T02:46:10.427Z,81.11
2024-01-05T02:48:38.234Z,81.93
2024-01-05T02:51:06.332Z,81.64
2024-01-05T02:53:34.099Z,82.51
2024-01-05T02:56:01.820Z,82.38
2024-01-05T02:58:29.772Z,83.62
2024-01-05T03:00:57.635Z,83.64
2024-01-05T03:03:25.520Z,84.48
2024-01-05T03:05:53.545Z,82.30
2024-01-05T03:08:21.223Z,81.10
2024-01-05T03:10:48.937Z,80.04
2024-01-05T03:13:17.321Z,80.62
2024-01-05T03:15:45.121Z,82.26
2024-01-05T03:18:13.522Z,81.54
2024-01-05T03:20:42.172Z,81.77
2024-01-05T03:23:09.863Z,81.47
2024-01-05T03:25:38.421Z,82.09
2024-01-05T03:28:06.418Z,83.28
2024-01-05T03:30:34.253Z,82.97
2024-01-05T03:33:02.189Z,83.15
2024-01-05T03:35:31.640Z,83.51
2024-01-05T03:37:59.587Z,83.55
2024-01-05T03:40:27.300Z,83.87
2024-01-05T03:42:55.234Z,84.03
2024-01-05T03:45:22.934Z,83.45
2024-01-05T03:47:51.342Z,83.90
2024-01-05T03:50:20.294Z,85.07
2024-01-05T03:52:48.063Z,85.26
2024-01-05T03:55:16.238Z,86.15
2024-01-05T03:57:44.149Z,85.97
2024-01-05T04:00:12.050Z,86.24
2024-01-05T04:02:40.147Z,88.45
2024-01-05T04:05:09.121Z,86.62
2024-01-05T04:07:40.417Z,82.10
2024-01-05T04:10:09.210Z,81.60
2024-01-05T04:12:37.011Z,82.38
2024-01-05T04:15:05.363Z,82.41
2024-01-05T04:17:33.539Z,83.45
2024-01-05T04:20:02.447Z,82.94
2024-01-05T04:22:32.374Z,82.77
2024-01-05T04:25:00.412Z,82.90
2024-01-05T04:27:27.788Z,83.43
2024-01-05T04:29:55.236Z,85.60
2024-01-05T04:32:22.782Z,82.19
2024-01-05T04:34:50.465Z,82.03
2024-01-05T04:37:17.679Z,82.31
2024-01-05T04:39:45.218Z,83.33
2024-01-05T04:42:13.031Z,85.52
2024-01-05T04:44:41.226Z,83.46
2024-01-05T04:47:08.666Z,83.64
2024-01-05T04:49:38.966Z,83.77
2024-01-05T04:52:06.226Z,84.13
2024-01-05T04:54:34.211Z,84.45
2024-01-05T04:57:02.862Z,84.79
2024-01-05T04:59:30.992Z,86.15
2024-01-05T05:02:00.268Z,84.62
2024-01-05T05:04:27.582Z,86.03
2024-01-05T05:06:55.328Z,83.74
2024-01-05T05:09:22.874Z,84.83
2024-01-05T05:11:50.127Z,83.65
2024-01-05T05:14:17.361Z,84.46
2024-01-05T05:16:45.747Z,84.91
2024-01-05T05:19:13.589Z,85.89
2024-01-05T05:21:40.956Z,87.28
2024-01-05T05:24:08.530Z,89.70
2024-01-05T05:26:35.840Z,87.16
2024-01-05T05:29:03.214Z,88.20
2024-01-05T05:31:30.708Z,88.24
2024-01-05T05:33:58.076Z,88.49
2024-01-05T05:36:27.524Z,88.89
2024-01-05T05:38:55.508Z,89.48
2024-01-05T05:41:23.174Z,88.94
2024-01-05T05:43:50.359Z,89.93
2024-01-05T05:46:17.884Z,90.18
2024-01-05T05:48:45.824Z,90.18
2024-01-05T05:51:13.206Z,90.64
2024-01-05T05:53:40.601Z,91.29
2024-01-05T05:56:08.149Z,91.69
2024-01-05T05:58:35.511Z,91.75
2024-01-05T06:01:06.255Z,91.47
2024-01-05T06:03:34.546Z,91.94
2024-01-05T06:06:04.718Z,92.40
2024-01-05T06:08:34.581Z,92.97
2024-01-05T06:11:04.051Z,93.15
2024-01-05T06:13:38.265Z,92.52
2024-01-05T06:16:05.784Z,91.93
2024-01-05T06:18:33.167Z,91.64
2024-01-05T06:21:04.835Z,92.31
2024-01-05T06:23:32.695Z,92.52
2024-01-05T06:25:59.846Z,91.86
2024-01-05T06:28:28.251Z,91.46
2024-01-05T06:30:56.206Z,91.87
2024-01-05T06:33:23.876Z,92.17
2024-01-05T06:35:51.196Z,92.57
2024-01-05T06:38:20.986Z,92.91
2024-01-05T06:40:49.758Z,93.48
2024-01-05T06:43:16.931Z,93.40
2024-01-05T06:45:44.454Z,93.75
2024-01-05T06:48:16.818Z,93.65
2024-01-05T06:50:44.673Z,93.67
2024-01-05T06:53:12.869Z,94.09
2024-01-05T06:55:40.196Z,93.04
2024-01-05T06:58:09.253Z,93.20
2024-01-05T07:00:39.316Z,91.82
2024-01-05T07:03:09.659Z,91.29
2024-01-05T07:05:39.158Z,91.09
2024-01-05T07:08:08.885Z,91.21
2024-01-05T07:10:36.485Z,91.82
2024-01-05T07:13:06.214Z,92.44
2024-01-05T07:16:15.987Z,93.06
2024-01-05T07:18:44.043Z,93.18
2024-01-05T07:21:11.812Z,93.39
2024-01-05T07:23:39.033Z,93.62
2024-01-05T07:26:07.734Z,93.25
2024-01-05T07:28:34.867Z,93.93
2024-01-05T07:31:05.470Z,94.04
2024-01-05T07:33:40.281Z,94.06
2024-01-05T07:36:07.603Z,93.80
2024-01-05T07:38:37.903Z,94.34
2024-01-05T07:41:05.710Z,93.97
2024-01-05T07:43:32.885Z,94.02
2024-01-05T07:46:03.571Z,93.86
2024-01-05T07:48:33.266Z,94.11
2024-01-05T07:51:05.595Z,94.23
2024-01-05T07:53:33.103Z,94.13
2024-01-05T07:56:00.942Z,93.64
2024-01-05T07:58:28.168Z,93.85
2024-01-05T08:00:55.411Z,94.18
2024-01-05T08:03:23.409Z,94.00
2024-01-05T08:05:50.814Z,93.71
2024-01-05T08:08:18.449Z,93.52
2024-01-05T08:10:45.945Z,93.25
2024-01-05T08:13:13.175Z,93.69
2024-01-05T08:15:40.464Z,93.66
2024-01-05T08:18:12.807Z,93.98
2024-01-05T08:20:40.129Z,94.30
2024-01-05T08:23:08.717Z,94.60
2024-01-05T08:25:38.152Z,93.73
2024-01-05T08:28:05.357Z,93.40
2024-01-05T08:30:32.905Z,93.04
2024-01-05T08:33:00.617Z,92.28
2024-01-05T08:35:27.858Z,91.96
2024-01-05T08:37:57.125Z,91.35
2024-01-05T08:40:27.460Z,90.34
2024-01-05T08:42:55.878Z,89.33
2024-01-05T08:45:24.145Z,88.62
2024-01-05T08:48:09.858Z,87.17
2024-01-05T08:50:37.374Z,86.69
2024-01-05T08:53:04.884Z,85.56
2024-01-05T08:55:33.537Z,85.37
2024-01-05T08:58:03.938Z,83.96
2024-01-05T09:00:38.275Z,83.96
2024-01-05T09:03:10.022Z,83.59
2024-01-05T09:05:38.983Z,82.15
2024-01-05T09:08:06.491Z,81.63
2024-01-05T09:10:34.360Z,80.94
2024-01-05T09:13:01.690Z,79.69
2024-01-05T09:15:29.435Z,77.70
2024-01-05T09:17:56.898Z,78.29
2024-01-05T09:20:24.110Z,77.63
2024-01-05T09:22:53.539Z,78.71
2024-01-05T09:25:20.788Z,77.90
2024-01-05T09:27:50.924Z,77.96
2024-01-05T09:30:18.564Z,76.61
2024-01-05T09:32:47.588Z,75.50
2024-01-05T09:35:15.794Z,75.24
2024-01-05T09:37:53.170Z,74.42
2024-01-05T09:40:41.035Z,72.49
2024-01-05T09:43:28.964Z,72.28
2024-01-05T09:46:17.380Z,71.42
2024-01-05T09:49:10.236Z,72.52
2024-01-05T09:51:58.099Z,70.66
2024-01-05T09:54:47.233Z,70.19
2024-01-05T09:57:34.503Z,69.04
2024-01-05T10:00:22.546Z,70.54
2024-01-05T10:03:10.520Z,68.85
2024-01-05T10:06:02.320Z,67.29
2024-01-05T10:08:54.625Z,68.09
2024-01-05T10:11:57.426Z,67.39
2024-01-05T10:14:50.550Z,68.13
2024-01-05T10:17:38.216Z,68.96
2024-01-05T10:20:28.112Z,67.79
2024-01-05T10:23:16.894Z,68.69
2024-01-05T10:26:09.450Z,66.79
2024-01-05T10:28:59.191Z,66.71
2024-01-05T10:31:47.152Z,66.46
2024-01-05T10:34:36.282Z,65.92
2024-01-05T10:37:23.790Z,65.38
2024-01-05T10:40:17.157Z,66.05
2024-01-05T10:43:16.033Z,67.27
2024-01-05T10:46:03.707Z,65.55
2024-01-05T10:48:52.242Z,68.17
2024-01-05T10:51:42.660Z,65.92
2024-01-05T10:54:32.002Z,67.49
2024-01-05T10:57:21.471Z,64.88
2024-01-05T11:00:10.290Z,66.22
2024-01-05T11:03:10.530Z,67.37
2024-01-05T11:05:58.666Z,63.81
2024-01-05T11:08:53.174Z,66.15
2024-01-05T11:11:59.942Z,64.88
2024-01-05T11:14:52.549Z,65.13
2024-01-05T11:17:50.471Z,65.15
2024-01-05T11:20:40.771Z,67.41
2024-01-05T11:23:28.794Z,65.42
2024-01-05T11:26:31.530Z,66.31
2024-01-05T11:29:37.957Z,67.19
2024-01-05T11:32:43.799Z,67.12
2024-01-05T11:35:42.481Z,68.74
2024-01-05T11:38:30.549Z,68.68
2024-01-05T11:41:18.881Z,69.25
2024-01-05T11:44:27.609Z,69.45
2024-01-05T11:47:36.079Z,71.22
2024-01-05T11:50:36.293Z,71.68
2024-01-05T11:53:25.126Z,70.62
2024-01-05T11:56:16.101Z,71.54
2024-01-05T11:59:04.083Z,72.58
2024-01-05T12:01:56.146Z,72.66
2024-01-05T12:04:48.066Z,73.07
2024-01-05T12:07:35.315Z,73.42
2024-01-05T12:10:26.420Z,74.36
2024-01-05T12:13:14.083Z,73.85
2024-01-05T12:16:07.097Z,74.42
2024-01-05T12:18:56.768Z,74.61
2024-01-05T12:21:44.696Z,75.55
2024-01-05T12:24:38.631Z,76.32
2024-01-05T12:27:26.614Z,76.53
2024-01-05T12:30:14.359Z,76.75
2024-01-05T12:33:03.377Z,77.51
2024-01-05T12:35:53.361Z,77.44
2024-01-05T12:38:40.877Z,75.95
2024-01-05T12:41:34.100Z,76.05
2024-01-05T12:44:21.663Z,75.82
2024-01-05T12:47:10.766Z,76.73
2024-01-05T12:49:58.761Z,75.26
2024-01-05T12:52:46.480Z,76.40
2024-01-05T12:55:35.754Z,76.89
2024-01-05T12:58:23.446Z,76.77
2024-01-05T13:01:18.607Z,77.57
2024-01-05T13:04:06.869Z,78.69
2024-01-05T13:06:54.518Z,78.88
2024-01-05T13:09:42.072Z,78.81
2024-01-05T13:12:29.715Z,79.39
2024-01-05T13:15:18.234Z,78.42
2024-01-05T13:18:07.270Z,78.12
2024-01-05T13:20:55.112Z,77.00
2024-01-05T13:23:48.106Z,78.11
2024-01-05T13:26:35.394Z,78.09
2024-01-05T13:29:23.342Z,77.44
2024-01-05T13:32:11.231Z,77.57
2024-01-05T13:35:01.869Z,78.56
2024-01-05T13:37:50.688Z,78.80
2024-01-05T13:40:41.387Z,78.42
2024-01-05T13:43:31.256Z,79.03
2024-01-05T13:46:19.891Z,78.79
2024-01-05T13:49:07.164Z,78.79
2024-01-05T13:51:54.906Z,79.15
2024-01-05T13:54:42.647Z,80.35
2024-01-05T13:57:30.657Z,80.55
2024-01-05T14:00:28.921Z,81.33
2024-01-05T14:03:16.926Z,81.76
2024-01-05T14:06:09.393Z,82.20
2024-01-05T14:08:57.295Z,82.50
2024-01-05T14:11:44.889Z,82.89
2024-01-05T14:14:32.779Z,83.07
2024-01-05T14:17:20.458Z,83.11
2024-01-05T14:20:10.982Z,83.91
2024-01-05T14:23:00.671Z,83.93
2024-01-05T14:25:51.909Z,84.50
2024-01-05T14:28:44.455Z,85.16
2024-01-05T14:31:32.506Z,86.42
2024-01-05T14:34:19.745Z,87.37
2024-01-05T14:37:07.798Z,86.78
2024-01-05T14:39:55.548Z,87.10
2024-01-05T14:42:45.011Z,87.63
2024-01-05T14:45:32.797Z,87.98
2024-01-05T14:48:22.818Z,88.12
2024-01-05T14:51:11.234Z,88.24
2024-01-05T14:54:00.313Z,88.96
2024-01-05T14:56:48.140Z,89.14
2024-01-05T14:59:45.975Z,89.89
2024-01-05T15:02:33.737Z,90.41
2024-01-05T15:05:24.142Z,90.76
2024-01-05T15:08:15.805Z,91.28
2024-01-05T15:11:04.024Z,92.04
2024-01-05T15:13:51.881Z,92.18
2024-01-05T15:16:41.166Z,92.68
2024-01-05T15:19:29.456Z,92.86
2024-01-05T15:22:17.491Z,93.10
2024-01-05T15:25:07.048Z,93.26
2024-01-05T15:27:56.208Z,93.26
2024-01-05T15:30:43.829Z,94.04
2024-01-05T15:33:32.311Z,94.35
2024-01-05T15:36:24.757Z,94.12
2024-01-05T15:39:13.680Z,94.27
2024-01-05T15:42:01.454Z,94.74
2024-01-05T15:44:51.215Z,94.59
2024-01-05T15:47:38.944Z,94.94
2024-01-05T15:50:27.945Z,94.95
2024-01-05T15:53:15.168Z,95.43
2024-01-05T15:56:03.066Z,95.81
2024-01-05T15:58:56.084Z,95.95
2024-01-05T16:01:48.393Z,95.92
2024-01-05T16:04:36.654Z,96.33
2024-01-05T16:07:24.388Z,96.89
2024-01-05T16:10:12.385Z,97.23
2024-01-05T16:13:00.311Z,97.64
2024-01-05T16:15:47.816Z,97.35
2024-01-05T16:18:36.745Z,98.12
2024-01-05T16:21:25.400Z,98.71
2024-01-05T16:24:14.180Z,98.89
2024-01-05T16:27:04.112Z,98.99
2024-01-05T16:29:51.790Z,98.59
2024-01-05T16:32:42.243Z,98.39
2024-01-05T16:35:31.778Z,98.06
2024-01-05T16:38:26.318Z,98.53
2024-01-05T16:41:15.222Z,98.56
2024-01-05T16:44:04.507Z,98.65
2024-01-05T16:46:52.154Z,99.30
2024-01-05T16:49:41.115Z,99.47
2024-01-05T16:52:28.853Z,98.99
2024-01-05T16:55:16.271Z,99.37
2024-01-05T16:58:03.824Z,99.04
2024-01-05T17:00:51.983Z,99.38
2024-01-05T17:03:42.048Z,100.00
2024-01-05T17:06:30.189Z,99.67
2024-01-05T17:09:17.855Z,99.29
2024-01-05T17:12:08.720Z,99.23
2024-01-05T17:14:56.359Z,99.86
2024-01-05T17:17:45.262Z,99.52
2024-01-05T17:20:32.763Z,99.62
2024-01-05T17:23:20.324Z,99.57
2024-01-05T17:26:07.984Z,99.56
2024-01-05T17:29:00.055Z,100.00
2024-01-05T17:31:52.085Z,99.72
2024-01-05T17:34:40.317Z,99.85
2024-01-05T17:37:28.202Z,100.00
2024-01-05T17:40:16.514Z,100.00
2024-01-05T17:43:04.461Z,100.00
2024-01-05T17:45:52.447Z,100.00
2024-01-05T17:48:40.753Z,100.00
2024-01-05T17:54:19.948Z,100.00
2024-01-05T17:57:08.102Z,100.00
2024-01-05T17:59:36.126Z,100.00
2024-01-05T18:02:05.776Z,100.00
2024-01-05T18:04:34.021Z,100.00
2024-01-05T18:07:04.978Z,100.00
2024-01-05T18:09:33.639Z,99.92
2024-01-05T18:12:01.399Z,100.00
2024-01-05T18:14:29.649Z,100.00
2024-01-05T18:16:58.620Z,100.00
2024-01-05T18:19:26.424Z,100.00
2024-01-05T18:21:57.066Z,100.00
2024-01-05T18:24:25.134Z,100.00
2024-01-05T18:26:53.133Z,100.00
2024-01-05T18:29:28.589Z,99.88
2024-01-05T18:31:57.632Z,100.00
2024-01-05T18:34:32.420Z,100.00
2024-01-05T18:37:00.235Z,100.00
2024-01-05T18:39:27.584Z,100.00
2024-01-05T18:41:57.739Z,100.00
2024-01-05T18:44:25.215Z,100.00
2024-01-05T18:46:55.505Z,100.00
2024-01-05T18:49:23.006Z,100.00
2024-01-05T18:51:53.253Z,100.00
2024-01-05T18:54:20.506Z,100.00
2024-01-05T18:56:48.820Z,100.00
2024-01-05T18:59:16.288Z,100.00
2024-01-05T19:01:46.832Z,100.00
2024-01-05T19:04:14.335Z,100.00
2024-01-05T19:06:46.150Z,100.00
2024-01-05T19:09:14.522Z,100.00
2024-01-05T19:11:43.831Z,100.00
2024-01-05T19:14:11.700Z,100.00
2024-01-05T19:16:43.407Z,100.00
2024-01-05T19:19:12.724Z,100.00
2024-01-05T19:21:49.904Z,100.00
2024-01-05T19:24:24.990Z,100.00
2024-01-05T19:26:53.422Z,100.00
2024-01-05T19:29:20.953Z,100.00
2024-01-05T19:31:48.978Z,100.00
2024-01-05T19:34:16.546Z,100.00
2024-01-05T19:36:44.594Z,100.00
2024-01-05T19:39:14.686Z,100.00
2024-01-05T19:41:45.520Z,100.00
2024-01-05T19:44:17.078Z,100.00
2024-01-05T19:46:46.235Z,100.00
2024-01-05T19:49:14.340Z,100.00
2024-01-05T19:51:48.196Z,100.00
2024-01-05T19:54:17.366Z,100.00
2024-01-05T19:56:46.613Z,100.00
2024-01-05T19:59:13.814Z,100.00
2024-01-05T20:01:46.428Z,100.00
2024-01-05T20:04:17.018Z,100.00
2024-01-05T20:06:49.360Z,100.00
2024-01-05T20:09:17.294Z,100.00
2024-01-05T20:11:45.719Z,100.00
2024-01-05T20:14:13.802Z,100.00
2024-01-05T20:16:43.004Z,100.00
2024-01-05T20:19:31.125Z,100.00
2024-01-05T20:21:59.615Z,100.00
2024-01-05T20:24:26.911Z,100.00
2024-01-05T20:26:54.234Z,100.00
2024-01-05T20:29:22.324Z,100.00
2024-01-05T20:31:51.490Z,100.00
2024-01-05T20:34:19.762Z,100.00
2024-01-05T20:36:47.556Z,100.00
2024-01-05T20:39:15.300Z,100.00
2024-01-05T20:41:43.047Z,100.00
2024-01-05T20:44:13.645Z,100.00
2024-01-05T20:46:42.141Z,100.00
2024-01-05T20:49:10.784Z,100.00
2024-01-05T20:51:38.277Z,100.00
2024-01-05T20:54:07.697Z,100.00
2024-01-05T20:56:34.933Z,100.00
2024-01-05T20:59:03.529Z,100.00
2024-01-05T21:01:30.733Z,100.00
2024-01-05T21:03:58.492Z,100.00
2024-01-05T21:06:27.524Z,100.00
2024-01-05T21:08:54.728Z,100.00
2024-01-05T21:11:25.170Z,100.00
2024-01-05T21:13:57.563Z,100.00
2024-01-05T21:16:25.064Z,100.00
2024-01-05T21:18:53.198Z,100.00
2024-01-05T21:21:23.880Z,100.00
2024-01-05T21:23:51.201Z,100.00
2024-01-05T21:26:18.668Z,100.00
2024-01-05T21:28:47.152Z,100.00
2024-01-05T21:31:15.410Z,100.00
2024-01-05T21:33:45.375Z,100.00
2024-01-05T21:36:19.666Z,100.00
2024-01-05T21:38:49.642Z,100.00
2024-01-05T21:41:17.258Z,100.00
2024-01-05T21:43:46.972Z,100.00
2024-01-05T21:46:15.553Z,100.00
2024-01-05T21:48:54.440Z,100.00
2024-01-05T21:51:23.892Z,100.00
2024-01-05T21:53:51.122Z,100.00
2024-01-05T21:56:18.815Z,100.00
2024-01-05T21:58:46.701Z,100.00
2024-01-05T22:01:14.631Z,100.00
2024-01-05T22:03:42.389Z,100.00
2024-01-05T22:06:15.070Z,100.00
2024-01-05T22:08:42.826Z,100.00
2024-01-05T22:11:10.060Z,100.00
2024-01-05T22:13:37.215Z,100.00
2024-01-05T22:16:04.838Z,100.00
2024-01-05T22:18:37.925Z,100.00
2024-01-05T22:21:11.852Z,100.00
2024-01-05T22:23:41.640Z,100.00
2024-01-05T22:26:09.695Z,100.00
2024-01-05T22:28:37.614Z,100.00
2024-01-05T22:31:11.743Z,100.00
2024-01-05T22:33:40.190Z,100.00
2024-01-05T22:36:11.418Z,100.00
2024-01-05T22:38:39.735Z,100.00
2024-01-05T22:41:11.053Z,100.00
2024-01-05T22:43:39.483Z,100.00
2024-01-05T22:46:07.612Z,100.00
2024-01-05T22:48:36.607Z,100.00
2024-01-05T22:51:05.738Z,100.00
2024-01-05T22:53:33.542Z,100.00
2024-01-05T22:56:01.405Z,100.00
2024-01-05T22:58:29.373Z,100.00
2024-01-05T23:00:57.147Z,100.00
2024-01-05T23:03:24.486Z,100.00
2024-01-05T23:05:52.015Z,100.00
2024-01-05T23:08:23.201Z,100.00
2024-01-05T23:10:52.470Z,100.00
2024-01-05T23:13:19.701Z,100.00
2024-01-05T23:15:47.172Z,100.00
2024-01-05T23:18:14.858Z,100.00
2024-01-05T23:20:42.660Z,100.00
2024-01-05T23:23:11.008Z,100.00
2024-01-05T23:25:38.581Z,100.00
2024-01-05T23:28:05.999Z,100.00
2024-01-05T23:30:33.203Z,100.00
2024-01-05T23:33:00.806Z,100.00
2024-01-05T23:35:28.117Z,100.00
2024-01-05T23:37:56.041Z,100.00
2024-01-05T23:40:23.604Z,100.00
2024-01-05T23:42:50.836Z,100.00
2024-01-05T23:45:19.063Z,100.00
2024-01-05T23:47:46.678Z,100.00
2024-01-05T23:50:13.984Z,100.00
2024-01-05T23:52:41.173Z,100.00
2024-01-05T23:55:08.896Z,100.00
2024-01-05T23:57:37.128Z,100.00
